createdAt,value
2018-07-09T15:20:19.910Z,1.70
2018-07-09T15:22:51.885Z,1.60
2018-07-09T15:25:19.381Z,1.50
2018-07-09T15:27:47.648Z,1.47
2018-07-09T15:30:15.835Z,1.50
2018-07-09T15:32:43.466Z,1.87
2018-07-09T15:35:11.032Z,1.47
2018-07-09T15:37:40.525Z,1.80
2018-07-09T15:40:08.101Z,1.40
2018-07-09T15:42:37.645Z,1.80
2018-07-09T15:45:05.222Z,1.60
2018-07-09T15:47:32.863Z,1.50
2018-07-09T15:50:01.352Z,1.67
2018-07-09T15:52:29.345Z,1.70
2018-07-09T15:54:59.225Z,1.80
2018-07-09T15:57:27.166Z,1.80
2018-07-09T15:59:56.557Z,1.80
2018-07-09T16:02:24.163Z,1.60
2018-07-09T16:04:52.157Z,1.50
2018-07-09T16:07:20.489Z,1.80
2018-07-09T16:09:48.037Z,1.80
2018-07-09T16:12:15.587Z,1.73
2018-07-09T16:14:43.230Z,1.50
2018-07-09T16:17:11.472Z,1.97
2018-07-09T16:19:39.440Z,1.33
2018-07-09T16:22:06.985Z,1.93
2018-07-09T16:24:37.279Z,1.80
2018-07-09T16:27:05.724Z,1.57
2018-07-09T16:29:33.389Z,1.50
2018-07-09T16:32:00.939Z,1.80
2018-07-09T16:34:28.505Z,1.70
2018-07-09T16:36:56.073Z,1.90
2018-07-09T16:39:23.790Z,2.00
2018-07-09T16:41:51.803Z,1.60
2018-07-09T16:44:20.961Z,1.80
2018-07-09T16:46:48.627Z,1.43
2018-07-09T16:49:16.192Z,1.53
2018-07-09T16:51:45.764Z,2.00
2018-07-09T16:54:13.391Z,1.67
2018-07-09T16:56:41.044Z,1.53
2018-07-09T16:59:08.659Z,1.70
2018-07-09T17:01:36.220Z,1.80
2018-07-09T17:04:04.250Z,1.80
2018-07-09T17:06:31.865Z,1.67
2018-07-09T17:09:00.214Z,1.73
2018-07-09T17:11:27.829Z,2.20
2018-07-09T17:13:56.704Z,1.83
2018-07-09T17:16:25.695Z,1.80
2018-07-09T17:18:54.000Z,1.90
2018-07-09T17:21:21.525Z,1.60
2018-07-09T17:23:49.066Z,1.80
2018-07-09T17:26:16.690Z,1.70
2018-07-09T17:28:50.833Z,1.70
2018-07-09T17:31:20.666Z,2.00
2018-07-09T17:33:48.263Z,1.87
2018-07-09T17:36:18.267Z,2.47
2018-07-09T17:38:46.703Z,2.63
2018-07-09T17:41:14.282Z,2.10
2018-07-09T17:43:42.023Z,2.23
2018-07-09T17:46:10.256Z,3.80
2018-07-09T17:48:40.137Z,2.07
2018-07-09T17:51:09.083Z,2.70
2018-07-09T17:53:36.633Z,3.50
2018-07-09T17:56:06.404Z,2.83
2018-07-09T17:58:33.937Z,2.47
2018-07-09T18:01:03.747Z,2.10
2018-07-09T18:03:32.033Z,2.53
2018-07-09T18:05:59.814Z,1.97
2018-07-09T18:08:27.402Z,1.70
2018-07-09T18:10:56.176Z,2.70
2018-07-09T18:13:24.615Z,2.30
2018-07-09T18:15:54.249Z,1.93
2018-07-09T18:18:21.861Z,1.80
2018-07-09T18:20:49.602Z,2.90
2018-07-09T18:23:17.581Z,2.20
2018-07-09T18:25:45.179Z,1.90
2018-07-09T18:28:13.394Z,1.80
2018-07-09T18:30:41.003Z,1.80
2018-07-09T18:33:08.630Z,1.73
2018-07-09T18:35:36.688Z,2.27
2018-07-09T18:38:04.196Z,2.20
2018-07-09T18:40:31.778Z,2.37
2018-07-09T18:42:59.294Z,2.43
2018-07-09T18:45:27.760Z,2.60
2018-07-09T18:47:55.790Z,2.10
2018-07-09T18:50:23.342Z,2.40
2018-07-09T18:52:51.718Z,2.60
2018-07-09T18:55:19.349Z,2.47
2018-07-09T18:57:48.080Z,2.57
2018-07-09T19:00:15.688Z,2.73
2018-07-09T19:02:45.294Z,2.60
2018-07-09T19:05:13.266Z,2.33
2018-07-09T19:07:40.917Z,2.60
2018-07-09T19:10:08.932Z,2.70
2018-07-09T19:12:37.698Z,2.67
2018-07-09T19:15:05.802Z,2.70
2018-07-09T19:17:35.297Z,2.30
2018-07-09T19:20:03.362Z,2.60
2018-07-09T19:22:30.959Z,2.60
2018-07-09T19:25:00.168Z,2.73
2018-07-09T19:27:27.845Z,2.60
2018-07-09T19:29:55.046Z,2.90
2018-07-09T19:32:22.279Z,2.30
2018-07-09T19:34:49.363Z,2.67
2018-07-09T19:37:17.674Z,2.90
2018-07-09T19:39:44.542Z,3.30
2018-07-09T19:42:13.224Z,2.37
2018-07-09T19:44:40.329Z,2.27
2018-07-09T19:47:07.471Z,2.50
2018-07-09T19:49:34.654Z,2.77
2018-07-09T19:52:01.834Z,2.80
2018-07-09T19:54:28.988Z,2.90
2018-07-09T19:56:56.652Z,2.83
2018-07-09T19:59:23.734Z,2.57
2018-07-09T20:01:51.229Z,2.43
2018-07-09T20:04:18.278Z,3.10
2018-07-09T20:06:45.395Z,2.27
2018-07-09T20:09:12.550Z,2.73
2018-07-09T20:11:55.678Z,3.13
2018-07-09T20:14:28.214Z,2.20
2018-07-09T20:17:00.969Z,2.87
2018-07-09T20:19:28.757Z,2.60
2018-07-09T20:21:55.908Z,2.70
2018-07-09T20:25:04.260Z,2.77
2018-07-09T20:27:31.674Z,2.73
2018-07-09T20:29:59.109Z,2.93
2018-07-09T20:32:27.883Z,2.80
2018-07-09T20:34:55.354Z,2.80
2018-07-09T20:37:23.102Z,2.70
2018-07-09T20:39:50.603Z,2.97
2018-07-09T20:42:18.017Z,2.60
2018-07-09T20:44:45.466Z,3.07
2018-07-09T20:47:12.950Z,2.60
2018-07-09T20:49:40.484Z,2.50
2018-07-09T20:52:07.941Z,2.80
2018-07-09T20:54:35.755Z,2.80
2018-07-09T20:57:03.517Z,2.47
2018-07-09T20:59:31.078Z,3.00
2018-07-09T21:01:58.492Z,2.40
2018-07-09T21:04:27.900Z,2.80
2018-07-09T21:06:56.949Z,2.37
2018-07-09T21:09:24.940Z,2.30
2018-07-09T21:11:53.627Z,2.70
2018-07-09T21:14:21.357Z,2.40
2018-07-09T21:16:48.776Z,2.30
2018-07-09T21:19:16.309Z,3.03
2018-07-09T21:21:43.799Z,2.70
2018-07-09T21:24:11.319Z,2.60
2018-07-09T21:26:38.829Z,2.50
2018-07-09T21:29:06.223Z,2.50
2018-07-09T21:31:34.408Z,2.80
2018-07-09T21:34:02.980Z,2.70
2018-07-09T21:36:30.545Z,2.50
2018-07-09T21:38:58.800Z,2.80
2018-07-09T21:41:26.238Z,2.63
2018-07-09T21:43:53.718Z,2.90
2018-07-09T21:46:21.163Z,2.30
2018-07-09T21:48:48.950Z,2.50
2018-07-09T21:51:16.398Z,2.40
2018-07-09T21:53:43.896Z,2.60
2018-07-09T21:56:11.415Z,2.47
2018-07-09T21:58:38.936Z,2.57
2018-07-09T22:01:06.536Z,2.37
2018-07-09T22:03:35.952Z,2.53
2018-07-09T22:06:03.467Z,2.63
2018-07-09T22:08:31.468Z,2.73
2018-07-09T22:10:58.909Z,3.33
2018-07-09T22:13:27.272Z,2.50
2018-07-09T22:15:54.731Z,3.07
2018-07-09T22:18:22.246Z,2.63
2018-07-09T22:20:49.658Z,2.50
2018-07-09T22:23:17.191Z,2.53
2018-07-09T22:25:44.752Z,2.80
2018-07-09T22:28:12.241Z,2.80
2018-07-09T22:30:41.095Z,2.70
2018-07-09T22:33:09.829Z,2.40
2018-07-09T22:35:38.566Z,2.87
2018-07-09T22:38:08.475Z,2.60
2018-07-09T22:40:37.325Z,2.73
2018-07-09T22:43:17.189Z,2.67
2018-07-09T22:45:45.927Z,2.27
2018-07-09T22:48:14.638Z,2.63
2018-07-09T22:50:43.409Z,2.30
2018-07-09T22:53:12.221Z,2.10
2018-07-09T22:55:52.101Z,2.60
2018-07-09T22:58:22.795Z,2.57
2018-07-09T23:00:51.546Z,2.40
2018-07-09T23:03:20.319Z,2.70
2018-07-09T23:05:49.838Z,2.80
2018-07-09T23:08:19.270Z,2.70
2018-07-09T23:13:01.765Z,2.80
2018-07-09T23:15:44.245Z,2.50
2018-07-09T23:19:23.760Z,2.50
2018-07-09T23:22:04.317Z,2.87
2018-07-09T23:24:31.834Z,2.37
2018-07-09T23:26:59.250Z,2.60
2018-07-09T23:29:26.777Z,2.50
2018-07-09T23:31:54.228Z,2.73
2018-07-09T23:34:21.762Z,2.57
2018-07-09T23:36:49.249Z,2.20
2018-07-09T23:39:16.749Z,2.80
2018-07-09T23:41:44.313Z,2.63
2018-07-09T23:44:11.791Z,2.30
2018-07-09T23:46:39.324Z,2.90
2018-07-09T23:49:06.941Z,2.50
2018-07-09T23:51:34.353Z,2.43
2018-07-09T23:54:01.866Z,2.17
2018-07-09T23:59:45.008Z,2.10
